sensor_id;sensor_type;location;lat;lon;timestamp;pressure;altitude;pressure_sealevel;temperature;humidity
65553;BME280;52465;51.560;14.368;2023-04-03T00:01:36;101440.56;;;10.25;66.59
65553;BME280;52465;51.560;14.368;2023-04-03T00:04:21;101443.09;;;10.27;66.36
65553;BME280;52465;51.560;14.368;2023-04-03T00:06:49;101439.50;;;10.28;66.63
65553;BME280;52465;51.560;14.368;2023-04-03T00:09:14;101445.09;;;10.23;66.41
65553;BME280;52465;51.560;14.368;2023-04-03T00:11:40;101424.88;;;10.14;66.80
65553;BME280;52465;51.560;14.368;2023-04-03T00:14:05;101444.16;;;10.24;66.57
65553;BME280;52465;51.560;14.368;2023-04-03T00:16:31;101432.63;;;10.16;66.67
65553;BME280;52465;51.560;14.368;2023-04-03T00:18:56;101437.88;;;10.16;66.59
65553;BME280;52465;51.560;14.368;2023-04-03T00:21:22;101442.59;;;10.22;66.46
65553;BME280;52465;51.560;14.368;2023-04-03T00:23:47;101435.13;;;10.17;66.52
65553;BME280;52465;51.560;14.368;2023-04-03T00:26:13;101420.16;;;10.08;66.50
65553;BME280;52465;51.560;14.368;2023-04-03T00:28:39;101458.06;;;10.25;66.30
65553;BME280;52465;51.560;14.368;2023-04-03T00:31:04;101452.25;;;10.21;66.28
65553;BME280;52465;51.560;14.368;2023-04-03T00:33:30;101433.69;;;10.13;66.60
65553;BME280;52465;51.560;14.368;2023-04-03T00:35:56;101443.09;;;10.16;66.41
65553;BME280;52465;51.560;14.368;2023-04-03T00:38:42;101458.41;;;10.20;66.63
65553;BME280;52465;51.560;14.368;2023-04-03T00:41:09;101456.59;;;10.21;66.85
65553;BME280;52465;51.560;14.368;2023-04-03T00:43:35;101438.47;;;10.08;66.57
65553;BME280;52465;51.560;14.368;2023-04-03T00:46:00;101435.97;;;10.06;66.34
65553;BME280;52465;51.560;14.368;2023-04-03T00:48:29;101463.63;;;10.20;66.79
65553;BME280;52465;51.560;14.368;2023-04-03T00:50:56;101425.69;;;9.94;66.46
65553;BME280;52465;51.560;14.368;2023-04-03T00:53:26;101450.69;;;10.19;66.32
65553;BME280;52465;51.560;14.368;2023-04-03T00:55:54;101430.16;;;10.03;66.55
65553;BME280;52465;51.560;14.368;2023-04-03T00:58:36;101455.91;;;10.19;66.49
65553;BME280;52465;51.560;14.368;2023-04-03T01:01:12;101421.50;;;9.91;66.63
65553;BME280;52465;51.560;14.368;2023-04-03T01:03:41;101449.66;;;10.10;66.79
65553;BME280;52465;51.560;14.368;2023-04-03T01:06:06;101464.72;;;10.18;66.49
65553;BME280;52465;51.560;14.368;2023-04-03T01:08:35;101454.91;;;10.10;66.54
65553;BME280;52465;51.560;14.368;2023-04-03T01:11:01;101422.47;;;9.90;66.62
65553;BME280;52465;51.560;14.368;2023-04-03T01:13:30;101421.88;;;9.87;66.40
65553;BME280;52465;51.560;14.368;2023-04-03T01:16:04;101466.75;;;10.14;66.28
65553;BME280;52465;51.560;14.368;2023-04-03T01:18:31;101461.78;;;10.11;66.67
65553;BME280;52465;51.560;14.368;2023-04-03T01:24:05;101468.66;;;10.12;66.35
65553;BME280;52465;51.560;14.368;2023-04-03T01:26:38;101455.50;;;10.02;66.60
65553;BME280;52465;51.560;14.368;2023-04-03T01:29:05;101455.63;;;10.01;66.37
65553;BME280;52465;51.560;14.368;2023-04-03T01:31:55;101469.72;;;10.10;66.57
65553;BME280;52465;51.560;14.368;2023-04-03T01:34:21;101457.28;;;10.02;66.54
65553;BME280;52465;51.560;14.368;2023-04-03T01:36:47;101468.34;;;10.05;66.38
65553;BME280;52465;51.560;14.368;2023-04-03T01:39:12;101458.09;;;10.02;66.41
65553;BME280;52465;51.560;14.368;2023-04-03T01:41:38;101456.81;;;9.97;66.80
65553;BME280;52465;51.560;14.368;2023-04-03T01:44:04;101451.38;;;9.89;66.53
65553;BME280;52465;51.560;14.368;2023-04-03T01:46:29;101477.72;;;10.08;66.59
65553;BME280;52465;51.560;14.368;2023-04-03T01:48:58;101448.50;;;9.92;66.54
65553;BME280;52465;51.560;14.368;2023-04-03T01:51:23;101479.50;;;10.07;66.61
65553;BME280;52465;51.560;14.368;2023-04-03T01:53:51;101487.47;;;10.06;66.56
65553;BME280;52465;51.560;14.368;2023-04-03T01:56:17;101491.63;;;10.08;66.77
65553;BME280;52465;51.560;14.368;2023-04-03T01:58:42;101471.81;;;9.95;66.09
65553;BME280;52465;51.560;14.368;2023-04-03T02:01:08;101498.91;;;10.05;66.69
65553;BME280;52465;51.560;14.368;2023-04-03T02:03:34;101452.81;;;9.81;66.33
65553;BME280;52465;51.560;14.368;2023-04-03T02:06:00;101499.84;;;10.04;66.36
65553;BME280;52465;51.560;14.368;2023-04-03T02:08:29;101493.78;;;10.03;66.36
65553;BME280;52465;51.560;14.368;2023-04-03T02:10:54;101465.88;;;9.81;66.45
65553;BME280;52465;51.560;14.368;2023-04-03T02:13:20;101498.31;;;10.01;66.58
65553;BME280;52465;51.560;14.368;2023-04-03T02:15:46;101501.63;;;10.03;66.44
65553;BME280;52465;51.560;14.368;2023-04-03T02:18:13;101503.41;;;10.03;66.62
65553;BME280;52465;51.560;14.368;2023-04-03T02:20:40;101498.31;;;10.01;66.79
65553;BME280;52465;51.560;14.368;2023-04-03T02:23:05;101497.63;;;9.99;66.55
65553;BME280;52465;51.560;14.368;2023-04-03T02:25:36;101496.66;;;10.00;66.80
65553;BME280;52465;51.560;14.368;2023-04-03T02:28:01;101477.44;;;9.79;66.49
65553;BME280;52465;51.560;14.368;2023-04-03T02:30:27;101481.69;;;9.91;66.31
65553;BME280;52465;51.560;14.368;2023-04-03T02:32:53;101479.19;;;9.90;66.83
65553;BME280;52465;51.560;14.368;2023-04-03T02:43:51;101446.56;;;9.50;67.80
65553;BME280;52465;51.560;14.368;2023-04-03T02:46:17;101507.38;;;9.86;67.51
65553;BME280;52465;51.560;14.368;2023-04-03T02:48:42;101515.94;;;9.99;66.97
65553;BME280;52465;51.560;14.368;2023-04-03T02:51:11;101513.19;;;10.01;67.11
65553;BME280;52465;51.560;14.368;2023-04-03T02:53:42;101511.75;;;9.97;66.63
65553;BME280;52465;51.560;14.368;2023-04-03T02:56:07;101519.38;;;10.00;66.64
65553;BME280;52465;51.560;14.368;2023-04-03T02:58:33;101521.84;;;10.01;66.54
65553;BME280;52465;51.560;14.368;2023-04-03T03:00:58;101525.66;;;9.97;66.53
65553;BME280;52465;51.560;14.368;2023-04-03T03:03:24;101471.25;;;9.69;66.73
65553;BME280;52465;51.560;14.368;2023-04-03T03:05:50;101523.03;;;9.97;66.54
65553;BME280;52465;51.560;14.368;2023-04-03T03:08:25;101500.34;;;9.87;66.49
65553;BME280;52465;51.560;14.368;2023-04-03T03:10:51;101465.69;;;9.62;66.37
65553;BME280;52465;51.560;14.368;2023-04-03T03:13:19;101504.19;;;9.83;66.21
65553;BME280;52465;51.560;14.368;2023-04-03T03:15:47;101515.81;;;9.90;66.23
65553;BME280;52465;51.560;14.368;2023-04-03T03:20:56;101521.66;;;9.93;66.68
65553;BME280;52465;51.560;14.368;2023-04-03T03:23:23;101524.34;;;9.92;66.34
65553;BME280;52465;51.560;14.368;2023-04-03T03:25:49;101533.88;;;9.93;66.61
65553;BME280;52465;51.560;14.368;2023-04-03T03:28:15;101516.66;;;9.79;66.42
65553;BME280;52465;51.560;14.368;2023-04-03T03:30:40;101501.81;;;9.68;66.75
65553;BME280;52465;51.560;14.368;2023-04-03T03:33:06;101536.13;;;9.86;66.40
65553;BME280;52465;51.560;14.368;2023-04-03T03:35:32;101535.19;;;9.87;66.70
65553;BME280;52465;51.560;14.368;2023-04-03T03:37:58;101538.66;;;9.88;66.39
65553;BME280;52465;51.560;14.368;2023-04-03T03:40:26;101537.09;;;9.85;66.42
65553;BME280;52465;51.560;14.368;2023-04-03T03:52:04;101549.94;;;9.77;67.63
65553;BME280;52465;51.560;14.368;2023-04-03T03:54:31;101545.06;;;9.84;67.12
65553;BME280;52465;51.560;14.368;2023-04-03T03:56:56;101535.78;;;9.79;67.34
65553;BME280;52465;51.560;14.368;2023-04-03T03:59:21;101547.44;;;9.87;66.90
65553;BME280;52465;51.560;14.368;2023-04-03T04:01:50;101549.00;;;9.89;66.43
65553;BME280;52465;51.560;14.368;2023-04-03T04:04:16;101534.13;;;9.78;66.72
65553;BME280;52465;51.560;14.368;2023-04-03T04:06:43;101506.56;;;9.63;66.67
65553;BME280;52465;51.560;14.368;2023-04-03T04:09:11;101543.28;;;9.84;66.41
65553;BME280;52465;51.560;14.368;2023-04-03T04:20:59;101549.34;;;9.73;67.34
65553;BME280;52465;51.560;14.368;2023-04-03T04:26:02;101544.47;;;9.80;66.92
65553;BME280;52465;51.560;14.368;2023-04-03T04:37:11;101559.47;;;9.78;66.81
65553;BME280;52465;51.560;14.368;2023-04-03T04:39:36;101563.38;;;9.84;66.78
65553;BME280;52465;51.560;14.368;2023-04-03T04:42:02;101529.25;;;9.63;66.63
65553;BME280;52465;51.560;14.368;2023-04-03T04:44:27;101556.59;;;9.81;66.49
65553;BME280;52465;51.560;14.368;2023-04-03T04:46:53;101569.44;;;9.84;66.47
65553;BME280;52465;51.560;14.368;2023-04-03T04:49:18;101545.31;;;9.69;66.31
65553;BME280;52465;51.560;14.368;2023-04-03T04:51:44;101556.00;;;9.77;65.91
65553;BME280;52465;51.560;14.368;2023-04-03T04:54:09;101574.06;;;9.80;66.03
65553;BME280;52465;51.560;14.368;2023-04-03T05:05:21;101571.94;;;9.63;67.00
65553;BME280;52465;51.560;14.368;2023-04-03T05:07:47;101583.34;;;9.73;66.62
65553;BME280;52465;51.560;14.368;2023-04-03T05:10:13;101579.66;;;9.76;66.66
65553;BME280;52465;51.560;14.368;2023-04-03T05:12:39;101563.13;;;9.64;66.38
65553;BME280;52465;51.560;14.368;2023-04-03T05:15:08;101505.84;;;9.27;66.32
65553;BME280;52465;51.560;14.368;2023-04-03T05:20:32;101569.31;;;9.63;66.10
65553;BME280;52465;51.560;14.368;2023-04-03T05:22:58;101546.84;;;9.49;65.71
65553;BME280;52465;51.560;14.368;2023-04-03T05:25:23;101592.03;;;9.74;66.28
65553;BME280;52465;51.560;14.368;2023-04-03T05:27:49;101593.09;;;9.71;65.97
65553;BME280;52465;51.560;14.368;2023-04-03T05:30:15;101597.38;;;9.72;66.16
65553;BME280;52465;51.560;14.368;2023-04-03T05:32:40;101585.25;;;9.60;66.03
65553;BME280;52465;51.560;14.368;2023-04-03T05:35:06;101594.03;;;9.70;65.94
65553;BME280;52465;51.560;14.368;2023-04-03T05:37:33;101544.94;;;9.40;66.08
65553;BME280;52465;51.560;14.368;2023-04-03T05:39:58;101592.00;;;9.63;65.87
65553;BME280;52465;51.560;14.368;2023-04-03T05:42:24;101587.38;;;9.55;65.75
65553;BME280;52465;51.560;14.368;2023-04-03T05:44:50;101599.03;;;9.62;66.20
65553;BME280;52465;51.560;14.368;2023-04-03T05:47:17;101601.63;;;9.62;65.91
65553;BME280;52465;51.560;14.368;2023-04-03T05:49:42;101559.19;;;9.36;65.70
65553;BME280;52465;51.560;14.368;2023-04-03T05:52:26;101595.72;;;9.60;65.67
65553;BME280;52465;51.560;14.368;2023-04-03T05:54:55;101603.56;;;9.60;65.81
65553;BME280;52465;51.560;14.368;2023-04-03T05:57:21;101597.50;;;9.60;65.68
65553;BME280;52465;51.560;14.368;2023-04-03T05:59:47;101578.56;;;9.45;65.52
65553;BME280;52465;51.560;14.368;2023-04-03T06:02:17;101607.22;;;9.58;65.97
65553;BME280;52465;51.560;14.368;2023-04-03T06:04:46;101580.69;;;9.40;65.86
65553;BME280;52465;51.560;14.368;2023-04-03T06:07:16;101614.22;;;9.57;65.93
65553;BME280;52465;51.560;14.368;2023-04-03T06:09:43;101620.28;;;9.58;65.76
65553;BME280;52465;51.560;14.368;2023-04-03T06:20:32;101569.00;;;9.10;67.41
65553;BME280;52465;51.560;14.368;2023-04-03T06:23:00;101574.75;;;9.26;66.97
65553;BME280;52465;51.560;14.368;2023-04-03T06:25:26;101566.91;;;9.26;66.58
65553;BME280;52465;51.560;14.368;2023-04-03T06:27:52;101624.56;;;9.59;66.59
65553;BME280;52465;51.560;14.368;2023-04-03T06:30:20;101595.31;;;9.42;66.23
65553;BME280;52465;51.560;14.368;2023-04-03T06:32:48;101616.72;;;9.59;66.38
65553;BME280;52465;51.560;14.368;2023-04-03T06:35:14;101557.84;;;9.19;66.55
65553;BME280;52465;51.560;14.368;2023-04-03T06:37:39;101624.44;;;9.49;66.08
65553;BME280;52465;51.560;14.368;2023-04-03T06:40:05;101593.88;;;9.38;66.10
65553;BME280;52465;51.560;14.368;2023-04-03T06:42:31;101600.78;;;9.39;65.88
65553;BME280;52465;51.560;14.368;2023-04-03T06:44:56;101628.38;;;9.54;65.75
65553;BME280;52465;51.560;14.368;2023-04-03T06:47:21;101634.53;;;9.53;66.30
65553;BME280;52465;51.560;14.368;2023-04-03T06:49:47;101624.53;;;9.47;66.03
65553;BME280;52465;51.560;14.368;2023-04-03T06:52:12;101633.81;;;9.51;65.96
65553;BME280;52465;51.560;14.368;2023-04-03T06:54:39;101622.50;;;9.40;66.00
65553;BME280;52465;51.560;14.368;2023-04-03T06:57:04;101642.25;;;9.44;66.26
65553;BME280;52465;51.560;14.368;2023-04-03T06:59:32;101634.13;;;9.36;65.57
65553;BME280;52465;51.560;14.368;2023-04-03T07:01:58;101636.75;;;9.36;66.17
65553;BME280;52465;51.560;14.368;2023-04-03T07:04:25;101607.25;;;9.11;65.63
65553;BME280;52465;51.560;14.368;2023-04-03T07:06:51;101633.63;;;9.19;65.94
65553;BME280;52465;51.560;14.368;2023-04-03T07:09:17;101651.47;;;9.37;65.57
65553;BME280;52465;51.560;14.368;2023-04-03T07:11:43;101655.78;;;9.38;65.71
65553;BME280;52465;51.560;14.368;2023-04-03T07:14:10;101652.56;;;9.34;65.61
65553;BME280;52465;51.560;14.368;2023-04-03T07:16:37;101619.69;;;9.08;65.60
65553;BME280;52465;51.560;14.368;2023-04-03T07:19:02;101659.78;;;9.31;66.16
65553;BME280;52465;51.560;14.368;2023-04-03T07:21:28;101640.25;;;9.12;65.64
65553;BME280;52465;51.560;14.368;2023-04-03T07:23:57;101644.81;;;9.21;65.82
65553;BME280;52465;51.560;14.368;2023-04-03T07:26:44;101665.00;;;9.31;65.45
65553;BME280;52465;51.560;14.368;2023-04-03T07:29:10;101629.69;;;9.14;65.69
65553;BME280;52465;51.560;14.368;2023-04-03T07:31:40;101650.03;;;9.21;65.53
65553;BME280;52465;51.560;14.368;2023-04-03T07:34:09;101664.91;;;9.32;65.55
65553;BME280;52465;51.560;14.368;2023-04-03T07:36:35;101666.69;;;9.32;65.61
65553;BME280;52465;51.560;14.368;2023-04-03T07:39:01;101655.75;;;9.26;65.81
65553;BME280;52465;51.560;14.368;2023-04-03T07:41:27;101669.31;;;9.32;65.87
65553;BME280;52465;51.560;14.368;2023-04-03T07:43:55;101657.53;;;9.26;65.34
65553;BME280;52465;51.560;14.368;2023-04-03T07:46:22;101668.44;;;9.31;65.50
65553;BME280;52465;51.560;14.368;2023-04-03T07:48:47;101657.53;;;9.26;65.47
65553;BME280;52465;51.560;14.368;2023-04-03T07:51:13;101619.09;;;9.04;65.39
65553;BME280;52465;51.560;14.368;2023-04-03T07:53:42;101661.47;;;9.32;65.44
65553;BME280;52465;51.560;14.368;2023-04-03T07:56:08;101666.28;;;9.25;65.97
65553;BME280;52465;51.560;14.368;2023-04-03T07:58:34;101662.03;;;9.24;65.85
65553;BME280;52465;51.560;14.368;2023-04-03T08:01:00;101661.69;;;9.28;65.54
65553;BME280;52465;51.560;14.368;2023-04-03T08:03:25;101670.34;;;9.29;65.40
65553;BME280;52465;51.560;14.368;2023-04-03T08:05:51;101660.25;;;9.24;65.43
65553;BME280;52465;51.560;14.368;2023-04-03T08:08:22;101652.97;;;9.17;66.05
65553;BME280;52465;51.560;14.368;2023-04-03T08:10:52;101630.25;;;9.06;65.73
65553;BME280;52465;51.560;14.368;2023-04-03T08:13:19;101666.09;;;9.28;65.46
65553;BME280;52465;51.560;14.368;2023-04-03T08:15:44;101605.88;;;8.94;65.68
65553;BME280;52465;51.560;14.368;2023-04-03T08:18:10;101664.31;;;9.28;65.58
65553;BME280;52465;51.560;14.368;2023-04-03T08:20:37;101667.28;;;9.35;65.37
65553;BME280;52465;51.560;14.368;2023-04-03T08:23:03;101640.25;;;9.12;65.61
65553;BME280;52465;51.560;14.368;2023-04-03T08:25:29;101632.53;;;9.11;65.15
65553;BME280;52465;51.560;14.368;2023-04-03T08:27:55;101645.75;;;9.20;65.24
65553;BME280;52465;51.560;14.368;2023-04-03T08:30:21;101663.59;;;9.26;65.90
65553;BME280;52465;51.560;14.368;2023-04-03T08:32:47;101677.53;;;9.38;65.74
65553;BME280;52465;51.560;14.368;2023-04-03T08:35:13;101623.94;;;9.09;65.33
65553;BME280;52465;51.560;14.368;2023-04-03T08:37:39;101680.00;;;9.40;65.07
65553;BME280;52465;51.560;14.368;2023-04-03T08:40:06;101643.84;;;9.22;65.11
65553;BME280;52465;51.560;14.368;2023-04-03T08:42:54;101671.47;;;9.38;65.74
65553;BME280;52465;51.560;14.368;2023-04-03T08:45:36;101661.91;;;9.25;65.44
65553;BME280;52465;51.560;14.368;2023-04-03T08:48:31;101643.03;;;9.22;65.17
65553;BME280;52465;51.560;14.368;2023-04-03T08:51:02;101660.72;;;9.30;65.29
65553;BME280;52465;51.560;14.368;2023-04-03T08:53:33;101671.69;;;9.35;65.34
65553;BME280;52465;51.560;14.368;2023-04-03T08:56:04;101669.56;;;9.40;65.52
65553;BME280;52465;51.560;14.368;2023-04-03T08:58:38;101650.28;;;9.30;65.30
65553;BME280;52465;51.560;14.368;2023-04-03T09:01:36;101674.91;;;9.38;65.42
65553;BME280;52465;51.560;14.368;2023-04-03T09:04:08;101678.13;;;9.42;65.20
65553;BME280;52465;51.560;14.368;2023-04-03T09:06:36;101683.34;;;9.42;65.16
65553;BME280;52465;51.560;14.368;2023-04-03T09:20:39;101692.72;;;9.79;64.18
65553;BME280;52465;51.560;14.368;2023-04-03T09:23:22;101677.63;;;9.83;63.49
65553;BME280;52465;51.560;14.368;2023-04-03T09:25:58;101643.00;;;9.68;63.50
65553;BME280;52465;51.560;14.368;2023-04-03T09:28:27;101688.34;;;10.02;63.71
65553;BME280;52465;51.560;14.368;2023-04-03T09:30:53;101680.28;;;10.05;63.50
65553;BME280;52465;51.560;14.368;2023-04-03T09:33:21;101655.88;;;9.94;63.22
65553;BME280;52465;51.560;14.368;2023-04-03T09:35:48;101665.88;;;10.11;63.24
65553;BME280;52465;51.560;14.368;2023-04-03T09:38:17;101668.72;;;10.19;63.48
65553;BME280;52465;51.560;14.368;2023-04-03T09:40:45;101684.72;;;10.27;63.23
65553;BME280;52465;51.560;14.368;2023-04-03T09:45:43;101668.88;;;10.29;63.08
65553;BME280;52465;51.560;14.368;2023-04-03T09:53:42;101668.38;;;10.35;62.84
65553;BME280;52465;51.560;14.368;2023-04-03T09:58:49;101671.81;;;10.47;62.99
65553;BME280;52465;51.560;14.368;2023-04-03T10:01:28;101668.03;;;10.51;62.58
65553;BME280;52465;51.560;14.368;2023-04-03T10:06:37;101664.09;;;10.56;62.41
65553;BME280;52465;51.560;14.368;2023-04-03T10:12:08;101663.81;;;10.59;62.68
65553;BME280;52465;51.560;14.368;2023-04-03T10:14:41;101666.22;;;10.63;62.66
65553;BME280;52465;51.560;14.368;2023-04-03T10:20:36;101651.00;;;10.56;62.48
65553;BME280;52465;51.560;14.368;2023-04-03T10:23:17;101637.56;;;10.50;62.50
65553;BME280;52465;51.560;14.368;2023-04-03T10:28:57;101656.06;;;10.69;62.73
65553;BME280;52465;51.560;14.368;2023-04-03T10:31:44;101627.09;;;10.50;62.44
65553;BME280;52465;51.560;14.368;2023-04-03T10:34:24;101648.09;;;10.71;62.68
65553;BME280;52465;51.560;14.368;2023-04-03T10:37:01;101654.88;;;10.73;62.40
65553;BME280;52465;51.560;14.368;2023-04-03T10:42:15;101656.53;;;10.74;62.63
65553;BME280;52465;51.560;14.368;2023-04-03T10:47:22;101651.06;;;10.66;62.58
65553;BME280;52465;51.560;14.368;2023-04-03T10:50:07;101656.53;;;10.74;62.43
65553;BME280;52465;51.560;14.368;2023-04-03T10:52:48;101657.38;;;10.75;62.72
65553;BME280;52465;51.560;14.368;2023-04-03T10:55:34;101653.91;;;10.74;62.53
65553;BME280;52465;51.560;14.368;2023-04-03T10:58:02;101645.22;;;10.74;62.66
65553;BME280;52465;51.560;14.368;2023-04-03T11:00:47;101660.13;;;10.73;62.58
65553;BME280;52465;51.560;14.368;2023-04-03T11:03:29;101645.22;;;10.74;62.57
65553;BME280;52465;51.560;14.368;2023-04-03T11:05:57;101644.28;;;10.75;63.01
65553;BME280;52465;51.560;14.368;2023-04-03T11:11:08;101642.63;;;10.74;62.58
65553;BME280;52465;51.560;14.368;2023-04-03T11:16:22;101637.03;;;10.67;62.70
65553;BME280;52465;51.560;14.368;2023-04-03T11:18:54;101647.03;;;10.73;62.75
65553;BME280;52465;51.560;14.368;2023-04-03T11:21:43;101650.59;;;10.72;62.67
65553;BME280;52465;51.560;14.368;2023-04-03T11:24:20;101631.56;;;10.59;62.73
65553;BME280;52465;51.560;14.368;2023-04-03T11:26:48;101589.03;;;10.35;62.78
65553;BME280;52465;51.560;14.368;2023-04-03T11:29:19;101643.66;;;10.71;62.73
65553;BME280;52465;51.560;14.368;2023-04-03T11:32:06;101643.66;;;10.71;62.69
65553;BME280;52465;51.560;14.368;2023-04-03T11:34:48;101633.19;;;10.71;62.81
65553;BME280;52465;51.560;14.368;2023-04-03T11:37:20;101629.66;;;10.72;62.63
65553;BME280;52465;51.560;14.368;2023-04-03T11:39:54;101636.53;;;10.73;62.65
65553;BME280;52465;51.560;14.368;2023-04-03T11:42:33;101617.78;;;10.57;62.85
65553;BME280;52465;51.560;14.368;2023-04-03T11:45:23;101631.53;;;10.70;62.63
65553;BME280;52465;51.560;14.368;2023-04-03T11:47:55;101631.53;;;10.70;62.89
65553;BME280;52465;51.560;14.368;2023-04-03T12:16:25;101566.94;;;10.27;62.55
65553;BME280;52465;51.560;14.368;2023-04-03T12:26:31;101612.06;;;10.52;62.77
65553;BME280;52465;51.560;14.368;2023-04-03T12:28:58;101588.78;;;10.38;62.72
65553;BME280;52465;51.560;14.368;2023-04-03T12:31:37;101634.66;;;10.64;62.62
65553;BME280;52465;51.560;14.368;2023-04-03T12:34:18;101625.97;;;10.64;62.57
65553;BME280;52465;51.560;14.368;2023-04-03T12:39:41;101632.16;;;10.63;62.71
65553;BME280;52465;51.560;14.368;2023-04-03T12:45:04;101626.19;;;10.60;62.65
65553;BME280;52465;51.560;14.368;2023-04-03T12:47:35;101588.34;;;10.32;62.95
65553;BME280;52465;51.560;14.368;2023-04-03T12:53:05;101612.22;;;10.50;62.74
65553;BME280;52465;51.560;14.368;2023-04-03T12:55:32;101618.97;;;10.53;62.89
65553;BME280;52465;51.560;14.368;2023-04-03T13:01:08;101613.88;;;10.51;62.63
65553;BME280;52465;51.560;14.368;2023-04-03T13:03:38;101628.25;;;10.57;62.76
65553;BME280;52465;51.560;14.368;2023-04-03T13:06:14;101622.19;;;10.56;62.61
65553;BME280;52465;51.560;14.368;2023-04-03T13:08:50;101595.56;;;10.40;62.71
65553;BME280;52465;51.560;14.368;2023-04-03T13:11:20;101629.22;;;10.56;62.72
65553;BME280;52465;51.560;14.368;2023-04-03T13:16:22;101616.22;;;10.54;62.78
65553;BME280;52465;51.560;14.368;2023-04-03T13:18:53;101625.16;;;10.52;63.04
65553;BME280;52465;51.560;14.368;2023-04-03T13:21:24;101574.50;;;10.19;63.00
65553;BME280;52465;51.560;14.368;2023-04-03T13:23:53;101613.72;;;10.53;62.84
65553;BME280;52465;51.560;14.368;2023-04-03T13:26:22;101512.59;;;9.86;62.70
65553;BME280;52465;51.560;14.368;2023-04-03T13:28:52;101608.28;;;10.45;62.87
65553;BME280;52465;51.560;14.368;2023-04-03T13:31:23;101614.81;;;10.50;62.82
65553;BME280;52465;51.560;14.368;2023-04-03T13:34:09;101628.97;;;10.48;62.51
65553;BME280;52465;51.560;14.368;2023-04-03T13:36:39;101626.34;;;10.48;62.86
65553;BME280;52465;51.560;14.368;2023-04-03T13:41:44;101622.56;;;10.41;62.52
65553;BME280;52465;51.560;14.368;2023-04-03T13:44:26;101623.75;;;10.37;62.49
65553;BME280;52465;51.560;14.368;2023-04-03T13:46:55;101629.94;;;10.36;62.16
65553;BME280;52465;51.560;14.368;2023-04-03T13:51:56;101592.13;;;10.17;62.25
65553;BME280;52465;51.560;14.368;2023-04-03T13:54:25;101618.19;;;10.30;62.03
65553;BME280;52465;51.560;14.368;2023-04-03T13:56:57;101612.13;;;10.29;61.96
65553;BME280;52465;51.560;14.368;2023-04-03T13:59:28;101611.53;;;10.26;62.14
65553;BME280;52465;51.560;14.368;2023-04-03T14:04:48;101605.91;;;10.19;61.68
65553;BME280;52465;51.560;14.368;2023-04-03T14:07:17;101602.81;;;10.14;61.80
65553;BME280;52465;51.560;14.368;2023-04-03T14:09:46;101611.16;;;10.19;61.77
65553;BME280;52465;51.560;14.368;2023-04-03T14:12:18;101604.25;;;10.18;61.58
65553;BME280;52465;51.560;14.368;2023-04-03T14:14:46;101582.38;;;10.08;61.93
65553;BME280;52465;51.560;14.368;2023-04-03T14:17:17;101607.22;;;10.14;61.91
65553;BME280;52465;51.560;14.368;2023-04-03T14:19:44;101581.69;;;9.95;61.82
65553;BME280;52465;51.560;14.368;2023-04-03T14:22:19;101576.69;;;9.92;61.56
65553;BME280;52465;51.560;14.368;2023-04-03T14:24:46;101603.19;;;10.10;61.51
65553;BME280;52465;51.560;14.368;2023-04-03T14:27:19;101588.34;;;9.99;61.28
65553;BME280;52465;51.560;14.368;2023-04-03T14:29:48;101612.25;;;10.05;61.39
65553;BME280;52465;51.560;14.368;2023-04-03T14:32:16;101584.53;;;9.92;61.21
65553;BME280;52465;51.560;14.368;2023-04-03T14:34:46;101608.91;;;10.03;60.93
65553;BME280;52465;51.560;14.368;2023-04-03T14:37:18;101604.63;;;10.02;61.27
65553;BME280;52465;51.560;14.368;2023-04-03T14:39:45;101600.47;;;10.00;61.09
65553;BME280;52465;51.560;14.368;2023-04-03T14:42:14;101579.41;;;9.90;61.17
65553;BME280;52465;51.560;14.368;2023-04-03T14:44:40;101609.03;;;10.02;60.78
65553;BME280;52465;51.560;14.368;2023-04-03T14:47:10;101571.09;;;9.85;60.83
65553;BME280;52465;51.560;14.368;2023-04-03T14:49:36;101559.31;;;9.79;60.56
65553;BME280;52465;51.560;14.368;2023-04-03T14:52:01;101580.50;;;9.99;60.45
65553;BME280;52465;51.560;14.368;2023-04-03T14:54:27;101580.84;;;9.94;60.61
65553;BME280;52465;51.560;14.368;2023-04-03T14:56:55;101562.19;;;9.88;60.54
65553;BME280;52465;51.560;14.368;2023-04-03T14:59:22;101580.25;;;9.91;60.09
65553;BME280;52465;51.560;14.368;2023-04-03T15:01:48;101566.22;;;9.92;60.49
65553;BME280;52465;51.560;14.368;2023-04-03T15:04:19;101584.78;;;10.00;59.92
65553;BME280;52465;51.560;14.368;2023-04-03T15:06:46;101548.41;;;9.74;59.84
65553;BME280;52465;51.560;14.368;2023-04-03T15:09:26;101574.31;;;9.89;60.14
65553;BME280;52465;51.560;14.368;2023-04-03T15:11:53;101556.59;;;9.81;59.87
65553;BME280;52465;51.560;14.368;2023-04-03T15:14:22;101581.69;;;9.95;60.15
65553;BME280;52465;51.560;14.368;2023-04-03T15:16:48;101570.50;;;9.81;59.80
65553;BME280;52465;51.560;14.368;2023-04-03T15:19:14;101594.03;;;9.93;59.83
65553;BME280;52465;51.560;14.368;2023-04-03T15:21:42;101583.81;;;9.90;60.04
65553;BME280;52465;51.560;14.368;2023-04-03T15:24:09;101587.97;;;9.92;59.83
65553;BME280;52465;51.560;14.368;2023-04-03T15:26:37;101586.31;;;9.91;59.88
65553;BME280;52465;51.560;14.368;2023-04-03T15:29:06;101565.38;;;9.69;59.85
65553;BME280;52465;51.560;14.368;2023-04-03T15:31:31;101530.34;;;9.60;59.49
65553;BME280;52465;51.560;14.368;2023-04-03T15:33:57;101581.91;;;9.92;59.59
65553;BME280;52465;51.560;14.368;2023-04-03T15:36:24;101595.81;;;9.92;59.71
65553;BME280;52465;51.560;14.368;2023-04-03T15:39:10;101549.56;;;9.70;59.70
65553;BME280;52465;51.560;14.368;2023-04-03T15:41:36;101564.91;;;9.86;59.42